sensor_id;sensor_type;location;lat;lon;timestamp;temperature;humidity
18091;DHT22;9172;49.948;9.208;2023-12-04T00:02:25;-2.30;99.90
18091;DHT22;9172;49.948;9.208;2023-12-04T00:04:53;-2.40;99.90
18091;DHT22;9172;49.948;9.208;2023-12-04T00:07:22;-2.50;99.90
18091;DHT22;9172;49.948;9.208;2023-12-04T00:09:50;-2.70;99.90
18091;DHT22;9172;49.948;9.208;2023-12-04T00:12:19;-2.80;99.90
18091;DHT22;9172;49.948;9.208;2023-12-04T00:14:47;-2.80;99.90
18091;DHT22;9172;49.948;9.208;2023-12-04T00:17:16;-2.80;99.90
18091;DHT22;9172;49.948;9.208;2023-12-04T00:19:45;-2.60;99.90
18091;DHT22;9172;49.948;9.208;2023-12-04T00:22:13;-2.40;99.90
18091;DHT22;9172;49.948;9.208;2023-12-04T00:24:42;-2.20;99.90
18091;DHT22;9172;49.948;9.208;2023-12-04T00:27:11;-2.00;99.90
18091;DHT22;9172;49.948;9.208;2023-12-04T00:29:39;-1.90;99.90
18091;DHT22;9172;49.948;9.208;2023-12-04T00:32:08;-1.80;99.90
18091;DHT22;9172;49.948;9.208;2023-12-04T00:34:36;-1.70;99.90
18091;DHT22;9172;49.948;9.208;2023-12-04T00:37:05;-1.70;99.90
18091;DHT22;9172;49.948;9.208;2023-12-04T00:39:34;-1.70;99.90
18091;DHT22;9172;49.948;9.208;2023-12-04T00:42:03;-1.70;99.90
18091;DHT22;9172;49.948;9.208;2023-12-04T00:44:32;-1.80;99.90
18091;DHT22;9172;49.948;9.208;2023-12-04T00:47:00;-1.80;99.90
18091;DHT22;9172;49.948;9.208;2023-12-04T00:49:29;-1.80;99.90
18091;DHT22;9172;49.948;9.208;2023-12-04T00:51:57;-1.70;99.90
18091;DHT22;9172;49.948;9.208;2023-12-04T00:54:26;-1.70;99.90
18091;DHT22;9172;49.948;9.208;2023-12-04T00:56:55;-1.60;99.90
18091;DHT22;9172;49.948;9.208;2023-12-04T00:59:23;-1.50;99.90
18091;DHT22;9172;49.948;9.208;2023-12-04T01:01:52;-1.50;99.90
18091;DHT22;9172;49.948;9.208;2023-12-04T01:04:21;-1.50;99.90
18091;DHT22;9172;49.948;9.208;2023-12-04T01:06:50;-1.50;99.90
18091;DHT22;9172;49.948;9.208;2023-12-04T01:09:22;-1.60;99.90
18091;DHT22;9172;49.948;9.208;2023-12-04T01:11:52;-1.70;99.90
18091;DHT22;9172;49.948;9.208;2023-12-04T01:14:24;-1.70;99.90
18091;DHT22;9172;49.948;9.208;2023-12-04T01:16:53;-1.60;99.90
18091;DHT22;9172;49.948;9.208;2023-12-04T01:19:22;-1.60;99.90
18091;DHT22;9172;49.948;9.208;2023-12-04T01:21:50;-1.60;99.90
18091;DHT22;9172;49.948;9.208;2023-12-04T01:24:20;-1.60;99.90
18091;DHT22;9172;49.948;9.208;2023-12-04T01:26:49;-1.70;99.90
18091;DHT22;9172;49.948;9.208;2023-12-04T01:29:17;-1.80;99.90
18091;DHT22;9172;49.948;9.208;2023-12-04T01:31:46;-1.90;99.90
18091;DHT22;9172;49.948;9.208;2023-12-04T01:34:15;-1.90;99.90
18091;DHT22;9172;49.948;9.208;2023-12-04T01:36:43;-1.90;99.90
18091;DHT22;9172;49.948;9.208;2023-12-04T01:39:12;-1.90;99.90
18091;DHT22;9172;49.948;9.208;2023-12-04T01:41:41;-1.90;99.90
18091;DHT22;9172;49.948;9.208;2023-12-04T01:44:09;-1.90;99.90
18091;DHT22;9172;49.948;9.208;2023-12-04T01:46:38;-1.90;99.90
18091;DHT22;9172;49.948;9.208;2023-12-04T01:49:07;-1.80;99.90
18091;DHT22;9172;49.948;9.208;2023-12-04T01:51:36;-1.80;99.90
18091;DHT22;9172;49.948;9.208;2023-12-04T01:54:05;-1.80;99.90
18091;DHT22;9172;49.948;9.208;2023-12-04T01:56:35;-1.70;99.90
18091;DHT22;9172;49.948;9.208;2023-12-04T01:59:05;-1.70;99.90
18091;DHT22;9172;49.948;9.208;2023-12-04T02:01:34;-1.70;99.90
18091;DHT22;9172;49.948;9.208;2023-12-04T02:04:05;-1.80;99.90
18091;DHT22;9172;49.948;9.208;2023-12-04T02:06:34;-1.80;99.90
18091;DHT22;9172;49.948;9.208;2023-12-04T02:09:03;-1.90;99.90
18091;DHT22;9172;49.948;9.208;2023-12-04T02:11:33;-2.00;99.90
18091;DHT22;9172;49.948;9.208;2023-12-04T02:14:01;-2.20;99.90
18091;DHT22;9172;49.948;9.208;2023-12-04T02:16:32;-2.30;99.90
18091;DHT22;9172;49.948;9.208;2023-12-04T02:19:02;-2.40;99.90
18091;DHT22;9172;49.948;9.208;2023-12-04T02:21:31;-2.50;99.90
18091;DHT22;9172;49.948;9.208;2023-12-04T02:24:00;-2.50;99.90
18091;DHT22;9172;49.948;9.208;2023-12-04T02:26:31;-2.50;99.90
18091;DHT22;9172;49.948;9.208;2023-12-04T02:31:41;-2.40;99.90
18091;DHT22;9172;49.948;9.208;2023-12-04T02:34:11;-2.50;99.90
18091;DHT22;9172;49.948;9.208;2023-12-04T02:36:41;-2.50;99.90
18091;DHT22;9172;49.948;9.208;2023-12-04T02:39:10;-2.50;99.90
18091;DHT22;9172;49.948;9.208;2023-12-04T02:41:39;-2.50;99.90
18091;DHT22;9172;49.948;9.208;2023-12-04T02:44:07;-2.50;99.90
18091;DHT22;9172;49.948;9.208;2023-12-04T02:46:36;-2.40;99.90
18091;DHT22;9172;49.948;9.208;2023-12-04T02:49:04;-2.50;99.90
18091;DHT22;9172;49.948;9.208;2023-12-04T02:51:33;-2.40;99.90
18091;DHT22;9172;49.948;9.208;2023-12-04T02:54:02;-2.30;99.90
18091;DHT22;9172;49.948;9.208;2023-12-04T02:56:30;-2.10;99.90
18091;DHT22;9172;49.948;9.208;2023-12-04T02:58:59;-2.00;99.90
18091;DHT22;9172;49.948;9.208;2023-12-04T03:01:28;-1.90;99.90
18091;DHT22;9172;49.948;9.208;2023-12-04T03:03:56;-1.80;99.90
18091;DHT22;9172;49.948;9.208;2023-12-04T03:06:25;-1.80;99.90
18091;DHT22;9172;49.948;9.208;2023-12-04T03:08:53;-1.70;99.90
18091;DHT22;9172;49.948;9.208;2023-12-04T03:11:22;-1.80;99.90
18091;DHT22;9172;49.948;9.208;2023-12-04T03:13:50;-1.80;99.90
18091;DHT22;9172;49.948;9.208;2023-12-04T03:16:19;-1.70;99.90
18091;DHT22;9172;49.948;9.208;2023-12-04T03:18:48;0.00;99.90
18091;DHT22;9172;49.948;9.208;2023-12-04T03:21:16;-1.70;99.90
18091;DHT22;9172;49.948;9.208;2023-12-04T03:23:45;-1.60;99.90
18091;DHT22;9172;49.948;9.208;2023-12-04T03:26:14;-1.60;99.90
18091;DHT22;9172;49.948;9.208;2023-12-04T03:28:42;-1.60;99.90
18091;DHT22;9172;49.948;9.208;2023-12-04T03:31:11;-1.60;99.90
18091;DHT22;9172;49.948;9.208;2023-12-04T03:33:40;-1.60;99.90
18091;DHT22;9172;49.948;9.208;2023-12-04T03:36:09;-1.60;99.90
18091;DHT22;9172;49.948;9.208;2023-12-04T03:38:38;-1.60;99.90
18091;DHT22;9172;49.948;9.208;2023-12-04T03:43:50;-1.50;99.90
18091;DHT22;9172;49.948;9.208;2023-12-04T03:46:19;-1.50;99.90
18091;DHT22;9172;49.948;9.208;2023-12-04T03:48:47;-1.40;99.90
18091;DHT22;9172;49.948;9.208;2023-12-04T03:51:16;-1.40;99.90
18091;DHT22;9172;49.948;9.208;2023-12-04T03:53:44;-1.50;99.90
18091;DHT22;9172;49.948;9.208;2023-12-04T03:56:13;-1.40;99.90
18091;DHT22;9172;49.948;9.208;2023-12-04T03:58:41;-1.40;99.90
18091;DHT22;9172;49.948;9.208;2023-12-04T04:01:10;-1.40;99.90
18091;DHT22;9172;49.948;9.208;2023-12-04T04:03:39;-1.40;99.90
18091;DHT22;9172;49.948;9.208;2023-12-04T04:06:10;-1.50;99.90
18091;DHT22;9172;49.948;9.208;2023-12-04T04:08:39;-1.50;99.90
18091;DHT22;9172;49.948;9.208;2023-12-04T04:11:08;-1.50;99.90
18091;DHT22;9172;49.948;9.208;2023-12-04T04:13:36;-1.60;99.90
18091;DHT22;9172;49.948;9.208;2023-12-04T04:16:07;-1.70;99.90
18091;DHT22;9172;49.948;9.208;2023-12-04T04:18:36;-1.60;99.90
18091;DHT22;9172;49.948;9.208;2023-12-04T04:21:05;-1.60;99.90
18091;DHT22;9172;49.948;9.208;2023-12-04T04:23:34;-1.60;99.90
18091;DHT22;9172;49.948;9.208;2023-12-04T04:26:03;-1.50;99.90
18091;DHT22;9172;49.948;9.208;2023-12-04T04:28:32;-1.50;99.90
18091;DHT22;9172;49.948;9.208;2023-12-04T04:31:00;-1.50;99.90
18091;DHT22;9172;49.948;9.208;2023-12-04T04:33:29;-1.50;99.90
18091;DHT22;9172;49.948;9.208;2023-12-04T04:35:58;-1.50;99.90
18091;DHT22;9172;49.948;9.208;2023-12-04T04:38:26;-1.40;99.90
18091;DHT22;9172;49.948;9.208;2023-12-04T04:40:55;-1.40;99.90
18091;DHT22;9172;49.948;9.208;2023-12-04T04:43:24;-1.40;99.90
18091;DHT22;9172;49.948;9.208;2023-12-04T04:45:52;-1.40;99.90
18091;DHT22;9172;49.948;9.208;2023-12-04T04:48:21;-1.40;99.90
18091;DHT22;9172;49.948;9.208;2023-12-04T04:50:49;-1.30;99.90
18091;DHT22;9172;49.948;9.208;2023-12-04T04:53:18;-1.30;99.90
18091;DHT22;9172;49.948;9.208;2023-12-04T04:55:46;-1.30;99.90
18091;DHT22;9172;49.948;9.208;2023-12-04T04:58:15;-1.30;99.90
18091;DHT22;9172;49.948;9.208;2023-12-04T05:00:44;-1.30;99.90
18091;DHT22;9172;49.948;9.208;2023-12-04T05:03:13;-1.30;99.90
18091;DHT22;9172;49.948;9.208;2023-12-04T05:05:42;-1.40;99.90
18091;DHT22;9172;49.948;9.208;2023-12-04T05:08:10;-1.40;99.90
18091;DHT22;9172;49.948;9.208;2023-12-04T05:10:39;-1.40;99.90
18091;DHT22;9172;49.948;9.208;2023-12-04T05:13:08;-1.40;99.90
18091;DHT22;9172;49.948;9.208;2023-12-04T05:15:37;-1.40;99.90
18091;DHT22;9172;49.948;9.208;2023-12-04T05:18:05;-1.40;99.90
18091;DHT22;9172;49.948;9.208;2023-12-04T05:20:34;-1.40;99.90
18091;DHT22;9172;49.948;9.208;2023-12-04T05:23:02;-1.40;99.90
18091;DHT22;9172;49.948;9.208;2023-12-04T05:25:31;-1.40;99.90
18091;DHT22;9172;49.948;9.208;2023-12-04T05:27:59;-1.50;99.90
18091;DHT22;9172;49.948;9.208;2023-12-04T05:33:05;-1.50;99.90
18091;DHT22;9172;49.948;9.208;2023-12-04T05:35:34;-1.50;99.90
18091;DHT22;9172;49.948;9.208;2023-12-04T05:38:04;-1.50;99.90
18091;DHT22;9172;49.948;9.208;2023-12-04T05:40:33;-1.50;99.90
18091;DHT22;9172;49.948;9.208;2023-12-04T05:43:01;-1.60;99.90
18091;DHT22;9172;49.948;9.208;2023-12-04T05:45:30;-1.60;99.90
18091;DHT22;9172;49.948;9.208;2023-12-04T05:47:58;-1.60;99.90
18091;DHT22;9172;49.948;9.208;2023-12-04T05:50:27;-1.60;99.90
18091;DHT22;9172;49.948;9.208;2023-12-04T05:52:56;-1.60;99.90
18091;DHT22;9172;49.948;9.208;2023-12-04T05:55:26;-1.70;99.90
18091;DHT22;9172;49.948;9.208;2023-12-04T05:57:54;-1.70;99.90
18091;DHT22;9172;49.948;9.208;2023-12-04T06:00:23;-1.70;99.90
18091;DHT22;9172;49.948;9.208;2023-12-04T06:02:51;-1.70;99.90
18091;DHT22;9172;49.948;9.208;2023-12-04T06:05:20;-1.80;99.90
18091;DHT22;9172;49.948;9.208;2023-12-04T06:07:50;-1.80;99.90
18091;DHT22;9172;49.948;9.208;2023-12-04T06:10:19;-1.90;99.90
18091;DHT22;9172;49.948;9.208;2023-12-04T06:12:47;-1.80;99.90
18091;DHT22;9172;49.948;9.208;2023-12-04T06:15:16;-1.80;99.90
18091;DHT22;9172;49.948;9.208;2023-12-04T06:17:44;-1.80;99.90
18091;DHT22;9172;49.948;9.208;2023-12-04T06:20:13;-1.80;99.90
18091;DHT22;9172;49.948;9.208;2023-12-04T06:22:42;-1.80;99.90
18091;DHT22;9172;49.948;9.208;2023-12-04T06:25:14;-1.80;99.90
18091;DHT22;9172;49.948;9.208;2023-12-04T06:27:44;-1.80;99.90
18091;DHT22;9172;49.948;9.208;2023-12-04T06:30:15;-1.80;99.90
18091;DHT22;9172;49.948;9.208;2023-12-04T06:32:44;-1.80;99.90
18091;DHT22;9172;49.948;9.208;2023-12-04T06:35:15;-1.80;99.90
18091;DHT22;9172;49.948;9.208;2023-12-04T06:37:47;-1.80;99.90
18091;DHT22;9172;49.948;9.208;2023-12-04T06:40:18;-1.80;99.90
18091;DHT22;9172;49.948;9.208;2023-12-04T06:42:47;-1.80;99.90
18091;DHT22;9172;49.948;9.208;2023-12-04T06:45:17;-1.80;99.90
18091;DHT22;9172;49.948;9.208;2023-12-04T06:47:46;-1.80;99.90
18091;DHT22;9172;49.948;9.208;2023-12-04T06:50:17;-1.80;99.90
18091;DHT22;9172;49.948;9.208;2023-12-04T06:52:45;-1.80;99.90
18091;DHT22;9172;49.948;9.208;2023-12-04T06:55:14;-1.90;99.90
18091;DHT22;9172;49.948;9.208;2023-12-04T06:57:43;-1.80;99.90
18091;DHT22;9172;49.948;9.208;2023-12-04T07:00:13;-1.80;99.90
18091;DHT22;9172;49.948;9.208;2023-12-04T07:02:43;-1.80;99.90
18091;DHT22;9172;49.948;9.208;2023-12-04T07:05:11;-1.80;99.90
18091;DHT22;9172;49.948;9.208;2023-12-04T07:07:40;-1.90;99.90
18091;DHT22;9172;49.948;9.208;2023-12-04T07:10:09;-1.80;99.90
18091;DHT22;9172;49.948;9.208;2023-12-04T07:12:40;-1.80;99.90
18091;DHT22;9172;49.948;9.208;2023-12-04T07:15:10;-1.90;99.90
18091;DHT22;9172;49.948;9.208;2023-12-04T07:17:39;-1.90;99.90
18091;DHT22;9172;49.948;9.208;2023-12-04T07:20:09;-1.80;99.90
18091;DHT22;9172;49.948;9.208;2023-12-04T07:22:39;-1.80;99.90
18091;DHT22;9172;49.948;9.208;2023-12-04T07:25:09;-1.80;99.90
18091;DHT22;9172;49.948;9.208;2023-12-04T07:27:37;-1.80;99.90
18091;DHT22;9172;49.948;9.208;2023-12-04T07:30:07;-1.80;99.90
18091;DHT22;9172;49.948;9.208;2023-12-04T07:32:36;-1.80;99.90
18091;DHT22;9172;49.948;9.208;2023-12-04T07:35:07;-1.70;99.90
18091;DHT22;9172;49.948;9.208;2023-12-04T07:37:35;-1.70;99.90
18091;DHT22;9172;49.948;9.208;2023-12-04T07:40:07;-1.60;99.90
18091;DHT22;9172;49.948;9.208;2023-12-04T07:42:37;-1.60;99.90
18091;DHT22;9172;49.948;9.208;2023-12-04T07:45:08;-1.60;99.90
18091;DHT22;9172;49.948;9.208;2023-12-04T07:47:37;-1.60;99.90
18091;DHT22;9172;49.948;9.208;2023-12-04T07:50:08;-1.60;99.90
18091;DHT22;9172;49.948;9.208;2023-12-04T07:52:36;-1.70;99.90
18091;DHT22;9172;49.948;9.208;2023-12-04T07:55:06;-1.70;99.90
18091;DHT22;9172;49.948;9.208;2023-12-04T07:57:35;-1.70;99.90
18091;DHT22;9172;49.948;9.208;2023-12-04T08:00:05;-1.80;99.90
18091;DHT22;9172;49.948;9.208;2023-12-04T08:02:34;-1.90;99.90
18091;DHT22;9172;49.948;9.208;2023-12-04T08:05:03;-1.90;99.90
18091;DHT22;9172;49.948;9.208;2023-12-04T08:07:32;-2.00;99.90
18091;DHT22;9172;49.948;9.208;2023-12-04T08:10:00;-2.10;99.90
18091;DHT22;9172;49.948;9.208;2023-12-04T08:12:29;-2.10;99.90
18091;DHT22;9172;49.948;9.208;2023-12-04T08:14:58;-2.10;99.90
18091;DHT22;9172;49.948;9.208;2023-12-04T08:17:26;-2.10;99.90
18091;DHT22;9172;49.948;9.208;2023-12-04T08:19:55;-2.10;99.90
18091;DHT22;9172;49.948;9.208;2023-12-04T08:22:24;-2.10;99.90
18091;DHT22;9172;49.948;9.208;2023-12-04T08:24:52;-2.00;99.90
18091;DHT22;9172;49.948;9.208;2023-12-04T08:27:22;-2.00;99.90
18091;DHT22;9172;49.948;9.208;2023-12-04T08:29:50;-2.00;99.90
18091;DHT22;9172;49.948;9.208;2023-12-04T08:32:19;-1.90;99.90
18091;DHT22;9172;49.948;9.208;2023-12-04T08:34:48;-1.80;99.90
18091;DHT22;9172;49.948;9.208;2023-12-04T08:37:17;-1.70;99.90
18091;DHT22;9172;49.948;9.208;2023-12-04T08:39:46;-1.60;99.90
18091;DHT22;9172;49.948;9.208;2023-12-04T08:42:14;-1.60;99.90
18091;DHT22;9172;49.948;9.208;2023-12-04T08:44:43;-1.60;99.90
18091;DHT22;9172;49.948;9.208;2023-12-04T08:47:13;-1.50;99.90
18091;DHT22;9172;49.948;9.208;2023-12-04T08:49:41;-1.40;99.90
18091;DHT22;9172;49.948;9.208;2023-12-04T08:52:10;-1.30;99.90
18091;DHT22;9172;49.948;9.208;2023-12-04T08:54:40;-1.30;99.90
18091;DHT22;9172;49.948;9.208;2023-12-04T08:57:09;-1.30;99.90
18091;DHT22;9172;49.948;9.208;2023-12-04T08:59:38;-1.20;99.90
18091;DHT22;9172;49.948;9.208;2023-12-04T09:02:07;-1.20;99.90
18091;DHT22;9172;49.948;9.208;2023-12-04T09:04:35;-1.50;99.90
18091;DHT22;9172;49.948;9.208;2023-12-04T09:07:04;-1.10;99.90
18091;DHT22;9172;49.948;9.208;2023-12-04T09:09:33;-1.20;99.90
18091;DHT22;9172;49.948;9.208;2023-12-04T09:12:02;-1.10;99.90
18091;DHT22;9172;49.948;9.208;2023-12-04T09:14:30;-1.10;99.90
18091;DHT22;9172;49.948;9.208;2023-12-04T09:16:59;-1.10;99.90
18091;DHT22;9172;49.948;9.208;2023-12-04T09:19:27;-1.10;99.90
18091;DHT22;9172;49.948;9.208;2023-12-04T09:21:56;-1.10;99.90
18091;DHT22;9172;49.948;9.208;2023-12-04T09:24:25;-1.10;99.90
18091;DHT22;9172;49.948;9.208;2023-12-04T09:26:55;-1.20;99.90
18091;DHT22;9172;49.948;9.208;2023-12-04T09:29:23;-1.10;99.90
18091;DHT22;9172;49.948;9.208;2023-12-04T09:31:52;-1.10;99.90
18091;DHT22;9172;49.948;9.208;2023-12-04T09:34:21;-1.10;99.90
18091;DHT22;9172;49.948;9.208;2023-12-04T09:36:50;-1.10;99.90
18091;DHT22;9172;49.948;9.208;2023-12-04T09:39:18;-1.00;99.90
18091;DHT22;9172;49.948;9.208;2023-12-04T09:41:47;-1.00;99.90
18091;DHT22;9172;49.948;9.208;2023-12-04T09:44:17;-1.00;99.90
18091;DHT22;9172;49.948;9.208;2023-12-04T09:46:46;-0.90;99.90
18091;DHT22;9172;49.948;9.208;2023-12-04T09:49:15;-0.90;99.90
18091;DHT22;9172;49.948;9.208;2023-12-04T09:51:46;-0.80;99.90
18091;DHT22;9172;49.948;9.208;2023-12-04T09:54:17;-0.80;99.90
18091;DHT22;9172;49.948;9.208;2023-12-04T09:56:47;-0.70;99.90
18091;DHT22;9172;49.948;9.208;2023-12-04T09:59:17;-0.70;99.90
18091;DHT22;9172;49.948;9.208;2023-12-04T10:01:47;-0.70;99.90
18091;DHT22;9172;49.948;9.208;2023-12-04T10:04:16;-0.80;99.90
18091;DHT22;9172;49.948;9.208;2023-12-04T10:06:46;-0.90;99.90
18091;DHT22;9172;49.948;9.208;2023-12-04T10:09:17;-0.90;99.90
18091;DHT22;9172;49.948;9.208;2023-12-04T10:11:46;-1.00;99.90
18091;DHT22;9172;49.948;9.208;2023-12-04T10:14:16;-1.00;99.90
18091;DHT22;9172;49.948;9.208;2023-12-04T10:16:46;-1.00;99.90
18091;DHT22;9172;49.948;9.208;2023-12-04T10:19:16;-1.00;99.90
18091;DHT22;9172;49.948;9.208;2023-12-04T10:21:46;-1.00;99.90
18091;DHT22;9172;49.948;9.208;2023-12-04T10:24:26;-1.00;99.90
18091;DHT22;9172;49.948;9.208;2023-12-04T10:26:55;-1.10;99.90
18091;DHT22;9172;49.948;9.208;2023-12-04T10:29:28;-1.10;99.90
18091;DHT22;9172;49.948;9.208;2023-12-04T10:31:59;-1.00;99.90
18091;DHT22;9172;49.948;9.208;2023-12-04T10:34:28;-1.00;99.90
18091;DHT22;9172;49.948;9.208;2023-12-04T10:36:56;-0.90;99.90
18091;DHT22;9172;49.948;9.208;2023-12-04T10:39:26;-0.90;99.90
18091;DHT22;9172;49.948;9.208;2023-12-04T10:42:03;-0.90;99.90
18091;DHT22;9172;49.948;9.208;2023-12-04T10:44:33;-0.90;99.90
18091;DHT22;9172;49.948;9.208;2023-12-04T10:47:02;-1.00;99.90
18091;DHT22;9172;49.948;9.208;2023-12-04T10:49:32;-0.90;99.90
18091;DHT22;9172;49.948;9.208;2023-12-04T10:57:25;-0.70;99.90
18091;DHT22;9172;49.948;9.208;2023-12-04T10:59:56;-0.70;99.90
18091;DHT22;9172;49.948;9.208;2023-12-04T11:02:26;-0.60;99.90
18091;DHT22;9172;49.948;9.208;2023-12-04T11:07:36;-0.50;99.90
18091;DHT22;9172;49.948;9.208;2023-12-04T11:10:07;-0.50;99.90
18091;DHT22;9172;49.948;9.208;2023-12-04T11:15:18;-0.50;99.90
18091;DHT22;9172;49.948;9.208;2023-12-04T11:17:53;-0.60;99.90
18091;DHT22;9172;49.948;9.208;2023-12-04T11:20:25;-0.60;99.90
18091;DHT22;9172;49.948;9.208;2023-12-04T11:22:56;-0.60;99.90
18091;DHT22;9172;49.948;9.208;2023-12-04T11:25:26;-0.70;99.90
18091;DHT22;9172;49.948;9.208;2023-12-04T11:27:56;-0.70;99.90
18091;DHT22;9172;49.948;9.208;2023-12-04T11:30:25;-0.70;99.90
18091;DHT22;9172;49.948;9.208;2023-12-04T11:32:54;-0.80;99.90
18091;DHT22;9172;49.948;9.208;2023-12-04T11:35:25;-0.70;99.90
18091;DHT22;9172;49.948;9.208;2023-12-04T11:37:54;-0.70;99.90
18091;DHT22;9172;49.948;9.208;2023-12-04T11:40:24;-0.80;99.90
18091;DHT22;9172;49.948;9.208;2023-12-04T11:42:53;-0.70;99.90
18091;DHT22;9172;49.948;9.208;2023-12-04T11:45:22;-0.70;99.90
18091;DHT22;9172;49.948;9.208;2023-12-04T11:47:52;-0.60;99.90
18091;DHT22;9172;49.948;9.208;2023-12-04T11:50:20;-0.60;99.90
18091;DHT22;9172;49.948;9.208;2023-12-04T11:52:49;-0.50;99.90
18091;DHT22;9172;49.948;9.208;2023-12-04T11:55:20;-0.50;99.90
18091;DHT22;9172;49.948;9.208;2023-12-04T11:57:51;-0.50;99.90
18091;DHT22;9172;49.948;9.208;2023-12-04T12:00:22;-0.50;99.90
18091;DHT22;9172;49.948;9.208;2023-12-04T12:03:03;-0.50;99.90
18091;DHT22;9172;49.948;9.208;2023-12-04T12:05:34;-0.60;99.90
18091;DHT22;9172;49.948;9.208;2023-12-04T12:08:03;-0.50;99.90
18091;DHT22;9172;49.948;9.208;2023-12-04T12:10:33;-0.50;99.90
18091;DHT22;9172;49.948;9.208;2023-12-04T12:13:02;-0.50;99.90
18091;DHT22;9172;49.948;9.208;2023-12-04T12:15:32;-0.50;99.90
18091;DHT22;9172;49.948;9.208;2023-12-04T12:18:01;-0.50;99.90
18091;DHT22;9172;49.948;9.208;2023-12-04T12:20:31;-0.50;99.90
18091;DHT22;9172;49.948;9.208;2023-12-04T12:23:01;-0.50;99.90
18091;DHT22;9172;49.948;9.208;2023-12-04T12:25:29;-0.50;99.90
18091;DHT22;9172;49.948;9.208;2023-12-04T12:27:59;-0.50;99.90
18091;DHT22;9172;49.948;9.208;2023-12-04T12:30:29;-0.50;99.90
18091;DHT22;9172;49.948;9.208;2023-12-04T12:32:57;-0.50;99.90
18091;DHT22;9172;49.948;9.208;2023-12-04T12:35:26;-0.50;99.90
18091;DHT22;9172;49.948;9.208;2023-12-04T12:37:55;-0.50;99.90
18091;DHT22;9172;49.948;9.208;2023-12-04T12:40:24;-0.60;99.90
18091;DHT22;9172;49.948;9.208;2023-12-04T12:43:03;-0.60;99.90
18091;DHT22;9172;49.948;9.208;2023-12-04T12:45:40;-0.70;99.90
18091;DHT22;9172;49.948;9.208;2023-12-04T12:50:48;-0.90;99.90
18091;DHT22;9172;49.948;9.208;2023-12-04T12:53:18;-0.90;99.90
18091;DHT22;9172;49.948;9.208;2023-12-04T12:55:48;-0.90;99.90
18091;DHT22;9172;49.948;9.208;2023-12-04T12:58:17;-0.90;99.90
18091;DHT22;9172;49.948;9.208;2023-12-04T13:00:47;-0.90;99.90
18091;DHT22;9172;49.948;9.208;2023-12-04T13:03:16;-0.90;99.90
18091;DHT22;9172;49.948;9.208;2023-12-04T13:05:45;-0.90;99.90
18091;DHT22;9172;49.948;9.208;2023-12-04T13:08:14;-0.90;99.90
18091;DHT22;9172;49.948;9.208;2023-12-04T13:10:42;-1.00;99.90
18091;DHT22;9172;49.948;9.208;2023-12-04T13:13:11;-0.90;99.90
18091;DHT22;9172;49.948;9.208;2023-12-04T13:15:40;-0.90;99.90
18091;DHT22;9172;49.948;9.208;2023-12-04T13:18:09;-0.90;99.90
18091;DHT22;9172;49.948;9.208;2023-12-04T13:20:38;-0.80;99.90
18091;DHT22;9172;49.948;9.208;2023-12-04T13:23:07;-0.80;99.90
18091;DHT22;9172;49.948;9.208;2023-12-04T13:25:35;-0.80;99.90
18091;DHT22;9172;49.948;9.208;2023-12-04T13:28:04;-0.80;99.90
18091;DHT22;9172;49.948;9.208;2023-12-04T13:30:33;-0.80;99.90
18091;DHT22;9172;49.948;9.208;2023-12-04T13:33:02;-0.80;99.90
18091;DHT22;9172;49.948;9.208;2023-12-04T13:35:31;-0.80;99.90
18091;DHT22;9172;49.948;9.208;2023-12-04T13:37:59;-0.80;99.90
18091;DHT22;9172;49.948;9.208;2023-12-04T13:40:28;-0.80;99.90
18091;DHT22;9172;49.948;9.208;2023-12-04T13:42:58;-0.80;99.90
18091;DHT22;9172;49.948;9.208;2023-12-04T13:45:44;-0.80;99.90
18091;DHT22;9172;49.948;9.208;2023-12-04T13:48:13;-0.70;99.90
18091;DHT22;9172;49.948;9.208;2023-12-04T13:50:42;-0.70;99.90
18091;DHT22;9172;49.948;9.208;2023-12-04T13:53:11;-0.60;99.90
18091;DHT22;9172;49.948;9.208;2023-12-04T13:55:41;-0.60;99.90
18091;DHT22;9172;49.948;9.208;2023-12-04T13:58:15;-0.60;99.90
18091;DHT22;9172;49.948;9.208;2023-12-04T14:01:05;-0.50;99.90
18091;DHT22;9172;49.948;9.208;2023-12-04T14:03:38;-0.60;99.90
18091;DHT22;9172;49.948;9.208;2023-12-04T14:06:08;-0.60;99.90
18091;DHT22;9172;49.948;9.208;2023-12-04T14:08:37;-0.60;99.90
18091;DHT22;9172;49.948;9.208;2023-12-04T14:11:06;-0.70;99.90
18091;DHT22;9172;49.948;9.208;2023-12-04T14:13:36;-0.70;99.90
18091;DHT22;9172;49.948;9.208;2023-12-04T14:16:06;-0.80;99.90
18091;DHT22;9172;49.948;9.208;2023-12-04T14:18:35;-0.80;99.90
18091;DHT22;9172;49.948;9.208;2023-12-04T14:21:04;-0.90;99.90
18091;DHT22;9172;49.948;9.208;2023-12-04T14:23:33;-0.90;99.90
18091;DHT22;9172;49.948;9.208;2023-12-04T14:26:01;-0.90;99.90
18091;DHT22;9172;49.948;9.208;2023-12-04T14:28:30;-0.80;99.90
18091;DHT22;9172;49.948;9.208;2023-12-04T14:30:59;-0.80;99.90
18091;DHT22;9172;49.948;9.208;2023-12-04T14:33:27;-0.80;99.90
18091;DHT22;9172;49.948;9.208;2023-12-04T14:35:56;-0.70;99.90
18091;DHT22;9172;49.948;9.208;2023-12-04T14:38:24;-0.70;99.90
18091;DHT22;9172;49.948;9.208;2023-12-04T14:40:53;-0.60;99.90
18091;DHT22;9172;49.948;9.208;2023-12-04T14:43:22;-0.60;99.90
18091;DHT22;9172;49.948;9.208;2023-12-04T14:45:50;-0.60;99.90
18091;DHT22;9172;49.948;9.208;2023-12-04T14:48:19;-0.60;99.90
18091;DHT22;9172;49.948;9.208;2023-12-04T14:50:48;-0.50;99.90
18091;DHT22;9172;49.948;9.208;2023-12-04T14:53:16;-0.50;99.90
18091;DHT22;9172;49.948;9.208;2023-12-04T14:55:47;-0.50;99.90
18091;DHT22;9172;49.948;9.208;2023-12-04T14:58:34;-0.50;99.90
18091;DHT22;9172;49.948;9.208;2023-12-04T15:01:29;-0.50;99.90
18091;DHT22;9172;49.948;9.208;2023-12-04T15:04:15;-0.60;99.90
18091;DHT22;9172;49.948;9.208;2023-12-04T15:07:02;-0.60;99.90
18091;DHT22;9172;49.948;9.208;2023-12-04T15:09:40;-0.60;99.90
18091;DHT22;9172;49.948;9.208;2023-12-04T15:12:37;-0.60;99.90
18091;DHT22;9172;49.948;9.208;2023-12-04T15:15:15;-0.50;99.90
18091;DHT22;9172;49.948;9.208;2023-12-04T15:17:45;-0.50;99.90
18091;DHT22;9172;49.948;9.208;2023-12-04T15:20:16;-0.50;99.90
18091;DHT22;9172;49.948;9.208;2023-12-04T15:22:49;-0.50;99.90
18091;DHT22;9172;49.948;9.208;2023-12-04T15:25:18;-0.40;99.90
18091;DHT22;9172;49.948;9.208;2023-12-04T15:27:47;-0.40;99.90
18091;DHT22;9172;49.948;9.208;2023-12-04T15:30:17;-0.30;99.90
18091;DHT22;9172;49.948;9.208;2023-12-04T15:32:45;-0.30;99.90
18091;DHT22;9172;49.948;9.208;2023-12-04T15:35:14;-0.20;99.90
18091;DHT22;9172;49.948;9.208;2023-12-04T15:37:43;-0.20;99.90
18091;DHT22;9172;49.948;9.208;2023-12-04T15:40:12;-0.20;99.90
18091;DHT22;9172;49.948;9.208;2023-12-04T15:42:40;-0.10;99.90
18091;DHT22;9172;49.948;9.208;2023-12-04T15:45:10;-0.10;99.90
18091;DHT22;9172;49.948;9.208;2023-12-04T15:47:39;-0.10;99.90
18091;DHT22;9172;49.948;9.208;2023-12-04T15:50:08;0.00;99.90
18091;DHT22;9172;49.948;9.208;2023-12-04T15:52:37;0.00;99.90
18091;DHT22;9172;49.948;9.208;2023-12-04T15:55:09;0.00;99.90
18091;DHT22;9172;49.948;9.208;2023-12-04T15:57:38;0.00;99.90
18091;DHT22;9172;49.948;9.208;2023-12-04T16:00:09;0.10;99.90
18091;DHT22;9172;49.948;9.208;2023-12-04T16:02:40;0.10;99.90
18091;DHT22;9172;49.948;9.208;2023-12-04T16:05:09;0.20;99.90
18091;DHT22;9172;49.948;9.208;2023-12-04T16:07:38;0.30;99.90
18091;DHT22;9172;49.948;9.208;2023-12-04T16:10:08;0.30;99.90
18091;DHT22;9172;49.948;9.208;2023-12-04T16:12:38;0.30;99.90
18091;DHT22;9172;49.948;9.208;2023-12-04T16:15:09;0.40;99.90
18091;DHT22;9172;49.948;9.208;2023-12-04T16:17:38;0.40;99.90
18091;DHT22;9172;49.948;9.208;2023-12-04T16:20:08;0.40;99.90
18091;DHT22;9172;49.948;9.208;2023-12-04T16:22:38;0.40;99.90
18091;DHT22;9172;49.948;9.208;2023-12-04T16:25:10;0.40;99.90